sensor_id;sensor_type;location;lat;lon;timestamp;temperature;humidity
56076;DHT22;41951;49.022;12.066;2022-09-09T00:00:33;15.80;99.90
56076;DHT22;41951;49.022;12.066;2022-09-09T00:03:27;15.90;99.90
56076;DHT22;41951;49.022;12.066;2022-09-09T00:20:01;15.90;99.90
56076;DHT22;41951;49.022;12.066;2022-09-09T00:22:30;15.70;99.90
56076;DHT22;41951;49.022;12.066;2022-09-09T00:25:12;15.60;99.90
56076;DHT22;41951;49.022;12.066;2022-09-09T00:27:45;15.60;99.90
56076;DHT22;41951;49.022;12.066;2022-09-09T00:30:20;15.50;99.90
56076;DHT22;41951;49.022;12.066;2022-09-09T00:32:50;15.50;99.90
56076;DHT22;41951;49.022;12.066;2022-09-09T00:35:22;15.50;99.90
56076;DHT22;41951;49.022;12.066;2022-09-09T00:37:51;15.60;99.90
56076;DHT22;41951;49.022;12.066;2022-09-09T00:40:33;15.50;99.90
56076;DHT22;41951;49.022;12.066;2022-09-09T00:43:37;15.50;99.90
56076;DHT22;41951;49.022;12.066;2022-09-09T00:59:56;15.70;99.90
56076;DHT22;41951;49.022;12.066;2022-09-09T01:11:25;15.80;99.90
56076;DHT22;41951;49.022;12.066;2022-09-09T01:14:16;15.90;99.90
56076;DHT22;41951;49.022;12.066;2022-09-09T01:16:46;16.00;99.90
56076;DHT22;41951;49.022;12.066;2022-09-09T01:19:20;16.00;99.90
56076;DHT22;41951;49.022;12.066;2022-09-09T01:22:28;16.00;99.90
56076;DHT22;41951;49.022;12.066;2022-09-09T01:27:54;16.10;99.90
56076;DHT22;41951;49.022;12.066;2022-09-09T01:30:21;16.10;99.90
56076;DHT22;41951;49.022;12.066;2022-09-09T01:32:54;16.10;99.90
56076;DHT22;41951;49.022;12.066;2022-09-09T01:35:48;16.20;99.90
56076;DHT22;41951;49.022;12.066;2022-09-09T01:38:20;16.20;99.90
56076;DHT22;41951;49.022;12.066;2022-09-09T01:40:46;16.20;99.90
56076;DHT22;41951;49.022;12.066;2022-09-09T01:43:13;16.20;99.90
56076;DHT22;41951;49.022;12.066;2022-09-09T01:45:40;16.10;99.90
56076;DHT22;41951;49.022;12.066;2022-09-09T01:48:07;16.10;99.90
56076;DHT22;41951;49.022;12.066;2022-09-09T01:50:33;16.10;99.90
56076;DHT22;41951;49.022;12.066;2022-09-09T01:53:00;16.10;99.90
56076;DHT22;41951;49.022;12.066;2022-09-09T01:55:32;16.10;99.90
56076;DHT22;41951;49.022;12.066;2022-09-09T02:00:24;16.20;99.90
56076;DHT22;41951;49.022;12.066;2022-09-09T02:03:05;16.20;99.90
56076;DHT22;41951;49.022;12.066;2022-09-09T02:05:44;16.10;99.90
56076;DHT22;41951;49.022;12.066;2022-09-09T02:08:50;16.10;99.90
56076;DHT22;41951;49.022;12.066;2022-09-09T02:11:14;16.10;99.90
56076;DHT22;41951;49.022;12.066;2022-09-09T02:13:43;16.10;99.90
56076;DHT22;41951;49.022;12.066;2022-09-09T02:21:18;16.10;99.90
56076;DHT22;41951;49.022;12.066;2022-09-09T02:23:46;16.10;99.90
56076;DHT22;41951;49.022;12.066;2022-09-09T02:26:14;16.10;99.90
56076;DHT22;41951;49.022;12.066;2022-09-09T02:28:46;16.10;99.90
56076;DHT22;41951;49.022;12.066;2022-09-09T02:31:13;16.00;99.90
56076;DHT22;41951;49.022;12.066;2022-09-09T02:33:44;15.90;99.90
56076;DHT22;41951;49.022;12.066;2022-09-09T02:36:12;16.00;99.90
56076;DHT22;41951;49.022;12.066;2022-09-09T02:38:46;16.00;99.90
56076;DHT22;41951;49.022;12.066;2022-09-09T02:41:18;16.00;99.90
56076;DHT22;41951;49.022;12.066;2022-09-09T02:43:45;16.00;99.90
56076;DHT22;41951;49.022;12.066;2022-09-09T02:48:59;16.00;99.90
56076;DHT22;41951;49.022;12.066;2022-09-09T02:54:09;15.90;99.90
56076;DHT22;41951;49.022;12.066;2022-09-09T02:56:40;15.90;99.90
56076;DHT22;41951;49.022;12.066;2022-09-09T02:59:07;15.90;99.90
56076;DHT22;41951;49.022;12.066;2022-09-09T03:01:33;15.80;99.90
56076;DHT22;41951;49.022;12.066;2022-09-09T03:03:58;15.80;99.90
56076;DHT22;41951;49.022;12.066;2022-09-09T03:06:24;15.80;99.90
56076;DHT22;41951;49.022;12.066;2022-09-09T03:08:50;15.70;99.90
56076;DHT22;41951;49.022;12.066;2022-09-09T03:11:16;15.70;99.90
56076;DHT22;41951;49.022;12.066;2022-09-09T03:13:42;15.70;99.90
56076;DHT22;41951;49.022;12.066;2022-09-09T03:16:08;15.70;99.90
56076;DHT22;41951;49.022;12.066;2022-09-09T03:18:33;15.60;99.90
56076;DHT22;41951;49.022;12.066;2022-09-09T03:21:00;15.70;99.90
56076;DHT22;41951;49.022;12.066;2022-09-09T03:23:25;15.60;99.90
56076;DHT22;41951;49.022;12.066;2022-09-09T03:25:51;15.70;99.90
56076;DHT22;41951;49.022;12.066;2022-09-09T03:28:18;15.70;99.90
56076;DHT22;41951;49.022;12.066;2022-09-09T03:30:44;15.70;99.90
56076;DHT22;41951;49.022;12.066;2022-09-09T03:33:09;15.80;99.90
56076;DHT22;41951;49.022;12.066;2022-09-09T03:35:35;15.80;99.90
56076;DHT22;41951;49.022;12.066;2022-09-09T03:38:01;15.70;99.90
56076;DHT22;41951;49.022;12.066;2022-09-09T03:40:27;15.70;99.90
56076;DHT22;41951;49.022;12.066;2022-09-09T03:42:52;15.60;99.90
56076;DHT22;41951;49.022;12.066;2022-09-09T03:45:18;15.60;99.90
56076;DHT22;41951;49.022;12.066;2022-09-09T03:47:44;15.70;99.90
56076;DHT22;41951;49.022;12.066;2022-09-09T03:50:10;15.60;99.90
56076;DHT22;41951;49.022;12.066;2022-09-09T03:52:40;15.60;99.90
56076;DHT22;41951;49.022;12.066;2022-09-09T03:55:07;15.50;99.90
56076;DHT22;41951;49.022;12.066;2022-09-09T03:57:33;15.40;99.90
56076;DHT22;41951;49.022;12.066;2022-09-09T04:00:04;15.40;99.90
56076;DHT22;41951;49.022;12.066;2022-09-09T04:02:30;15.40;99.90
56076;DHT22;41951;49.022;12.066;2022-09-09T04:04:55;15.40;99.90
56076;DHT22;41951;49.022;12.066;2022-09-09T04:07:21;15.40;99.90
56076;DHT22;41951;49.022;12.066;2022-09-09T04:09:47;15.40;99.90
56076;DHT22;41951;49.022;12.066;2022-09-09T04:12:12;15.40;99.90
56076;DHT22;41951;49.022;12.066;2022-09-09T04:14:38;15.40;99.90
56076;DHT22;41951;49.022;12.066;2022-09-09T04:17:04;15.40;99.90
56076;DHT22;41951;49.022;12.066;2022-09-09T04:19:31;15.40;99.90
56076;DHT22;41951;49.022;12.066;2022-09-09T04:21:57;15.50;99.90
56076;DHT22;41951;49.022;12.066;2022-09-09T04:24:23;15.40;99.90
56076;DHT22;41951;49.022;12.066;2022-09-09T04:26:48;15.40;99.90
56076;DHT22;41951;49.022;12.066;2022-09-09T04:29:14;15.40;99.90
56076;DHT22;41951;49.022;12.066;2022-09-09T04:31:40;15.50;99.90
56076;DHT22;41951;49.022;12.066;2022-09-09T04:34:10;15.40;99.90
56076;DHT22;41951;49.022;12.066;2022-09-09T04:36:36;15.40;99.90
56076;DHT22;41951;49.022;12.066;2022-09-09T04:39:02;15.30;99.90
56076;DHT22;41951;49.022;12.066;2022-09-09T04:41:28;15.40;99.90
56076;DHT22;41951;49.022;12.066;2022-09-09T04:43:54;15.40;99.90
56076;DHT22;41951;49.022;12.066;2022-09-09T04:46:20;15.40;99.90
56076;DHT22;41951;49.022;12.066;2022-09-09T04:48:46;15.40;99.90
56076;DHT22;41951;49.022;12.066;2022-09-09T04:51:13;15.40;99.90
56076;DHT22;41951;49.022;12.066;2022-09-09T04:53:39;15.40;99.90
56076;DHT22;41951;49.022;12.066;2022-09-09T04:56:08;15.40;99.90
56076;DHT22;41951;49.022;12.066;2022-09-09T04:58:35;15.30;99.90
56076;DHT22;41951;49.022;12.066;2022-09-09T05:01:07;15.30;99.90
56076;DHT22;41951;49.022;12.066;2022-09-09T05:03:32;15.30;99.90
56076;DHT22;41951;49.022;12.066;2022-09-09T05:06:03;15.30;99.90
56076;DHT22;41951;49.022;12.066;2022-09-09T05:08:29;15.30;99.90
56076;DHT22;41951;49.022;12.066;2022-09-09T05:10:54;15.30;99.90
56076;DHT22;41951;49.022;12.066;2022-09-09T05:13:20;15.30;99.90
56076;DHT22;41951;49.022;12.066;2022-09-09T05:15:54;15.30;99.90
56076;DHT22;41951;49.022;12.066;2022-09-09T05:18:20;15.30;99.90
56076;DHT22;41951;49.022;12.066;2022-09-09T05:20:48;15.30;99.90
56076;DHT22;41951;49.022;12.066;2022-09-09T05:23:13;15.30;99.90
56076;DHT22;41951;49.022;12.066;2022-09-09T05:25:40;15.30;99.90
56076;DHT22;41951;49.022;12.066;2022-09-09T05:28:06;15.40;99.90
56076;DHT22;41951;49.022;12.066;2022-09-09T05:30:33;15.30;99.90
56076;DHT22;41951;49.022;12.066;2022-09-09T05:32:59;15.40;99.90
56076;DHT22;41951;49.022;12.066;2022-09-09T05:35:25;15.40;99.90
56076;DHT22;41951;49.022;12.066;2022-09-09T05:37:53;15.50;99.90
56076;DHT22;41951;49.022;12.066;2022-09-09T05:40:24;15.40;99.90
56076;DHT22;41951;49.022;12.066;2022-09-09T05:42:49;15.50;99.90
56076;DHT22;41951;49.022;12.066;2022-09-09T05:45:15;15.50;99.90
56076;DHT22;41951;49.022;12.066;2022-09-09T05:47:41;15.50;99.90
56076;DHT22;41951;49.022;12.066;2022-09-09T05:50:06;15.50;99.90
56076;DHT22;41951;49.022;12.066;2022-09-09T05:52:32;15.40;99.90
56076;DHT22;41951;49.022;12.066;2022-09-09T05:54:58;15.40;99.90
56076;DHT22;41951;49.022;12.066;2022-09-09T05:57:24;15.40;99.90
56076;DHT22;41951;49.022;12.066;2022-09-09T05:59:50;15.40;99.90
56076;DHT22;41951;49.022;12.066;2022-09-09T06:02:16;15.40;99.90
56076;DHT22;41951;49.022;12.066;2022-09-09T06:04:41;15.50;99.90
56076;DHT22;41951;49.022;12.066;2022-09-09T06:07:07;15.50;99.90
56076;DHT22;41951;49.022;12.066;2022-09-09T06:09:33;15.40;99.90
56076;DHT22;41951;49.022;12.066;2022-09-09T06:11:58;15.40;99.90
56076;DHT22;41951;49.022;12.066;2022-09-09T06:14:24;15.50;99.90
56076;DHT22;41951;49.022;12.066;2022-09-09T06:16:51;15.40;99.90
56076;DHT22;41951;49.022;12.066;2022-09-09T06:19:16;15.50;99.90
56076;DHT22;41951;49.022;12.066;2022-09-09T06:21:42;15.50;99.90
56076;DHT22;41951;49.022;12.066;2022-09-09T06:24:09;15.40;99.90
56076;DHT22;41951;49.022;12.066;2022-09-09T06:26:38;15.50;99.90
56076;DHT22;41951;49.022;12.066;2022-09-09T06:29:07;15.50;99.90
56076;DHT22;41951;49.022;12.066;2022-09-09T06:31:34;15.60;99.90
56076;DHT22;41951;49.022;12.066;2022-09-09T06:34:04;15.60;99.90
56076;DHT22;41951;49.022;12.066;2022-09-09T06:36:37;15.60;99.90
56076;DHT22;41951;49.022;12.066;2022-09-09T06:39:05;15.60;99.90
56076;DHT22;41951;49.022;12.066;2022-09-09T06:41:32;15.60;99.90
56076;DHT22;41951;49.022;12.066;2022-09-09T06:43:58;15.60;99.90
56076;DHT22;41951;49.022;12.066;2022-09-09T06:46:26;15.60;99.90
56076;DHT22;41951;49.022;12.066;2022-09-09T06:48:56;15.70;99.90
56076;DHT22;41951;49.022;12.066;2022-09-09T06:51:35;15.80;99.90
56076;DHT22;41951;49.022;12.066;2022-09-09T06:54:02;15.90;99.90
56076;DHT22;41951;49.022;12.066;2022-09-09T06:56:35;15.90;99.90
56076;DHT22;41951;49.022;12.066;2022-09-09T06:59:04;16.00;99.90
56076;DHT22;41951;49.022;12.066;2022-09-09T07:01:32;16.00;99.90
56076;DHT22;41951;49.022;12.066;2022-09-09T07:03:59;16.30;99.90
56076;DHT22;41951;49.022;12.066;2022-09-09T07:06:33;16.30;99.90
56076;DHT22;41951;49.022;12.066;2022-09-09T07:09:08;16.30;99.90
56076;DHT22;41951;49.022;12.066;2022-09-09T07:11:41;16.50;99.90
56076;DHT22;41951;49.022;12.066;2022-09-09T07:14:07;16.50;99.90
56076;DHT22;41951;49.022;12.066;2022-09-09T07:16:34;16.60;99.90
56076;DHT22;41951;49.022;12.066;2022-09-09T07:19:02;17.40;99.90
56076;DHT22;41951;49.022;12.066;2022-09-09T07:21:30;16.50;99.90
56076;DHT22;41951;49.022;12.066;2022-09-09T07:23:56;16.50;99.90
56076;DHT22;41951;49.022;12.066;2022-09-09T07:26:24;16.50;99.90
56076;DHT22;41951;49.022;12.066;2022-09-09T07:28:50;16.50;99.90
56076;DHT22;41951;49.022;12.066;2022-09-09T07:31:18;16.50;99.90
56076;DHT22;41951;49.022;12.066;2022-09-09T07:33:44;16.50;99.90
56076;DHT22;41951;49.022;12.066;2022-09-09T07:36:31;16.60;99.90
56076;DHT22;41951;49.022;12.066;2022-09-09T07:39:00;16.70;99.90
56076;DHT22;41951;49.022;12.066;2022-09-09T07:41:35;16.60;99.90
56076;DHT22;41951;49.022;12.066;2022-09-09T07:44:11;16.70;99.90
56076;DHT22;41951;49.022;12.066;2022-09-09T07:46:37;16.70;99.90
56076;DHT22;41951;49.022;12.066;2022-09-09T07:49:05;16.50;99.90
56076;DHT22;41951;49.022;12.066;2022-09-09T07:51:32;16.40;99.90
56076;DHT22;41951;49.022;12.066;2022-09-09T07:54:01;16.40;99.90
56076;DHT22;41951;49.022;12.066;2022-09-09T07:56:28;16.30;99.90
56076;DHT22;41951;49.022;12.066;2022-09-09T07:58:55;16.30;99.90
56076;DHT22;41951;49.022;12.066;2022-09-09T08:01:27;16.20;99.90
56076;DHT22;41951;49.022;12.066;2022-09-09T08:03:57;16.20;99.90
56076;DHT22;41951;49.022;12.066;2022-09-09T08:06:35;16.10;99.90
56076;DHT22;41951;49.022;12.066;2022-09-09T08:09:03;16.10;99.90
56076;DHT22;41951;49.022;12.066;2022-09-09T08:11:29;16.10;99.90
56076;DHT22;41951;49.022;12.066;2022-09-09T08:13:56;16.10;99.90
56076;DHT22;41951;49.022;12.066;2022-09-09T08:16:23;16.10;99.90
56076;DHT22;41951;49.022;12.066;2022-09-09T08:18:50;16.10;99.90
56076;DHT22;41951;49.022;12.066;2022-09-09T08:21:25;16.10;99.90
56076;DHT22;41951;49.022;12.066;2022-09-09T08:23:53;16.20;99.90
56076;DHT22;41951;49.022;12.066;2022-09-09T08:26:20;16.20;99.90
56076;DHT22;41951;49.022;12.066;2022-09-09T08:28:50;16.20;99.90
56076;DHT22;41951;49.022;12.066;2022-09-09T08:31:20;16.20;99.90
56076;DHT22;41951;49.022;12.066;2022-09-09T08:33:46;16.10;99.90
56076;DHT22;41951;49.022;12.066;2022-09-09T08:36:15;16.20;99.90
56076;DHT22;41951;49.022;12.066;2022-09-09T08:38:42;16.10;99.90
56076;DHT22;41951;49.022;12.066;2022-09-09T08:43:44;16.20;99.90
56076;DHT22;41951;49.022;12.066;2022-09-09T08:49:02;16.30;99.90
56076;DHT22;41951;49.022;12.066;2022-09-09T08:51:32;16.30;99.90
56076;DHT22;41951;49.022;12.066;2022-09-09T08:54:00;16.30;99.90
56076;DHT22;41951;49.022;12.066;2022-09-09T08:56:28;16.20;99.90
56076;DHT22;41951;49.022;12.066;2022-09-09T08:58:56;16.20;99.90
56076;DHT22;41951;49.022;12.066;2022-09-09T09:04:31;16.40;99.90
56076;DHT22;41951;49.022;12.066;2022-09-09T09:12:23;16.90;99.90
56076;DHT22;41951;49.022;12.066;2022-09-09T09:14:49;16.90;99.90
56076;DHT22;41951;49.022;12.066;2022-09-09T09:17:20;16.80;99.90
56076;DHT22;41951;49.022;12.066;2022-09-09T09:19:48;16.90;99.90
56076;DHT22;41951;49.022;12.066;2022-09-09T09:22:32;16.90;99.90
56076;DHT22;41951;49.022;12.066;2022-09-09T09:25:12;16.90;99.90
56076;DHT22;41951;49.022;12.066;2022-09-09T09:28:00;17.00;99.90
56076;DHT22;41951;49.022;12.066;2022-09-09T09:30:40;17.00;99.90
56076;DHT22;41951;49.022;12.066;2022-09-09T09:35:52;17.20;99.90
56076;DHT22;41951;49.022;12.066;2022-09-09T09:38:26;17.40;99.90
56076;DHT22;41951;49.022;12.066;2022-09-09T09:40:55;17.60;99.90
56076;DHT22;41951;49.022;12.066;2022-09-09T09:43:36;17.70;99.90
56076;DHT22;41951;49.022;12.066;2022-09-09T09:46:05;18.00;99.90
56076;DHT22;41951;49.022;12.066;2022-09-09T09:48:43;18.20;99.90
56076;DHT22;41951;49.022;12.066;2022-09-09T09:51:13;18.30;99.90
56076;DHT22;41951;49.022;12.066;2022-09-09T09:53:41;18.30;99.90
56076;DHT22;41951;49.022;12.066;2022-09-09T09:56:11;18.40;99.90
56076;DHT22;41951;49.022;12.066;2022-09-09T10:01:38;18.70;99.90
56076;DHT22;41951;49.022;12.066;2022-09-09T10:04:16;18.70;99.90
56076;DHT22;41951;49.022;12.066;2022-09-09T10:06:44;18.70;99.90
56076;DHT22;41951;49.022;12.066;2022-09-09T10:15:07;19.00;99.90
56076;DHT22;41951;49.022;12.066;2022-09-09T10:17:40;19.00;99.90
56076;DHT22;41951;49.022;12.066;2022-09-09T10:20:21;19.10;99.90
56076;DHT22;41951;49.022;12.066;2022-09-09T10:22:52;19.10;99.90
56076;DHT22;41951;49.022;12.066;2022-09-09T10:28:25;19.20;99.90
56076;DHT22;41951;49.022;12.066;2022-09-09T10:36:23;19.30;99.90
56076;DHT22;41951;49.022;12.066;2022-09-09T10:39:00;19.50;99.90
56076;DHT22;41951;49.022;12.066;2022-09-09T10:41:33;19.60;99.90
56076;DHT22;41951;49.022;12.066;2022-09-09T10:50:07;19.80;99.90
56076;DHT22;41951;49.022;12.066;2022-09-09T10:55:43;19.60;99.90
56076;DHT22;41951;49.022;12.066;2022-09-09T10:58:18;19.60;99.90
56076;DHT22;41951;49.022;12.066;2022-09-09T11:00:51;19.70;99.90
56076;DHT22;41951;49.022;12.066;2022-09-09T11:03:25;19.80;99.90
56076;DHT22;41951;49.022;12.066;2022-09-09T11:08:32;19.80;99.90
56076;DHT22;41951;49.022;12.066;2022-09-09T11:11:03;19.80;99.90
56076;DHT22;41951;49.022;12.066;2022-09-09T11:13:55;19.70;99.90
56076;DHT22;41951;49.022;12.066;2022-09-09T11:21:55;20.10;99.90
56076;DHT22;41951;49.022;12.066;2022-09-09T11:24:29;20.00;99.90
56076;DHT22;41951;49.022;12.066;2022-09-09T11:27:15;20.00;99.90
56076;DHT22;41951;49.022;12.066;2022-09-09T11:33:15;20.00;99.90
56076;DHT22;41951;49.022;12.066;2022-09-09T11:36:23;20.00;99.90
56076;DHT22;41951;49.022;12.066;2022-09-09T11:38:52;20.10;99.90
56076;DHT22;41951;49.022;12.066;2022-09-09T11:41:21;20.10;99.90
56076;DHT22;41951;49.022;12.066;2022-09-09T11:43:49;20.30;99.90
56076;DHT22;41951;49.022;12.066;2022-09-09T11:46:31;20.50;99.90
56076;DHT22;41951;49.022;12.066;2022-09-09T11:49:01;20.80;99.90
56076;DHT22;41951;49.022;12.066;2022-09-09T11:51:29;21.00;99.90
56076;DHT22;41951;49.022;12.066;2022-09-09T11:59:00;21.20;99.90
56076;DHT22;41951;49.022;12.066;2022-09-09T12:05:02;21.20;99.90
56076;DHT22;41951;49.022;12.066;2022-09-09T12:10:01;21.50;99.90
56076;DHT22;41951;49.022;12.066;2022-09-09T12:12:31;21.70;99.90
56076;DHT22;41951;49.022;12.066;2022-09-09T12:17:31;21.70;99.90
56076;DHT22;41951;49.022;12.066;2022-09-09T12:20:52;21.70;99.90
56076;DHT22;41951;49.022;12.066;2022-09-09T12:32:09;21.70;99.90
56076;DHT22;41951;49.022;12.066;2022-09-09T12:34:39;21.90;99.90
56076;DHT22;41951;49.022;12.066;2022-09-09T12:37:15;22.00;99.90
56076;DHT22;41951;49.022;12.066;2022-09-09T12:39:55;21.80;99.90
56076;DHT22;41951;49.022;12.066;2022-09-09T12:42:22;21.60;99.90
56076;DHT22;41951;49.022;12.066;2022-09-09T12:44:56;21.40;99.90
56076;DHT22;41951;49.022;12.066;2022-09-09T12:47:41;21.20;99.90
56076;DHT22;41951;49.022;12.066;2022-09-09T12:50:27;21.00;99.90
56076;DHT22;41951;49.022;12.066;2022-09-09T12:52:56;20.60;99.90
56076;DHT22;41951;49.022;12.066;2022-09-09T12:55:36;20.40;99.90
56076;DHT22;41951;49.022;12.066;2022-09-09T12:58:04;20.30;99.90
56076;DHT22;41951;49.022;12.066;2022-09-09T13:00:32;20.20;99.90
56076;DHT22;41951;49.022;12.066;2022-09-09T13:03:14;20.10;99.90
56076;DHT22;41951;49.022;12.066;2022-09-09T13:05:41;19.90;99.90
56076;DHT22;41951;49.022;12.066;2022-09-09T13:08:12;19.80;99.90
56076;DHT22;41951;49.022;12.066;2022-09-09T13:10:52;19.80;99.90
56076;DHT22;41951;49.022;12.066;2022-09-09T13:13:28;19.70;99.90
56076;DHT22;41951;49.022;12.066;2022-09-09T13:15:59;21.40;99.90
56076;DHT22;41951;49.022;12.066;2022-09-09T13:18:36;19.60;99.90
56076;DHT22;41951;49.022;12.066;2022-09-09T13:21:03;19.70;99.90
56076;DHT22;41951;49.022;12.066;2022-09-09T13:23:31;19.90;99.90
56076;DHT22;41951;49.022;12.066;2022-09-09T13:26:03;20.30;99.90
56076;DHT22;41951;49.022;12.066;2022-09-09T13:28:30;20.80;99.90
56076;DHT22;41951;49.022;12.066;2022-09-09T13:31:04;21.40;99.90
56076;DHT22;41951;49.022;12.066;2022-09-09T13:33:35;21.90;99.90
56076;DHT22;41951;49.022;12.066;2022-09-09T13:36:09;22.30;99.90
56076;DHT22;41951;49.022;12.066;2022-09-09T13:41:19;22.80;99.90
56076;DHT22;41951;49.022;12.066;2022-09-09T13:43:47;22.80;99.90
56076;DHT22;41951;49.022;12.066;2022-09-09T13:46:35;22.60;99.90
56076;DHT22;41951;49.022;12.066;2022-09-09T13:51:45;22.10;99.90
56076;DHT22;41951;49.022;12.066;2022-09-09T13:54:14;21.90;99.90
56076;DHT22;41951;49.022;12.066;2022-09-09T13:56:41;21.70;99.90
56076;DHT22;41951;49.022;12.066;2022-09-09T13:59:12;21.60;99.90
56076;DHT22;41951;49.022;12.066;2022-09-09T14:01:37;21.40;99.90
56076;DHT22;41951;49.022;12.066;2022-09-09T14:04:03;21.40;99.90
56076;DHT22;41951;49.022;12.066;2022-09-09T14:06:30;21.20;99.90
56076;DHT22;41951;49.022;12.066;2022-09-09T14:08:57;21.40;99.90
56076;DHT22;41951;49.022;12.066;2022-09-09T14:11:23;21.60;99.90
56076;DHT22;41951;49.022;12.066;2022-09-09T14:13:49;21.80;99.90
56076;DHT22;41951;49.022;12.066;2022-09-09T14:16:16;21.90;99.90
56076;DHT22;41951;49.022;12.066;2022-09-09T14:18:43;22.20;99.90
56076;DHT22;41951;49.022;12.066;2022-09-09T14:21:09;22.80;99.90
56076;DHT22;41951;49.022;12.066;2022-09-09T14:23:35;23.00;99.90
56076;DHT22;41951;49.022;12.066;2022-09-09T14:26:01;22.80;99.90
56076;DHT22;41951;49.022;12.066;2022-09-09T14:28:26;22.60;99.90
56076;DHT22;41951;49.022;12.066;2022-09-09T14:30:53;22.70;99.90
56076;DHT22;41951;49.022;12.066;2022-09-09T14:33:19;22.60;99.90
56076;DHT22;41951;49.022;12.066;2022-09-09T14:35:45;22.70;99.90
56076;DHT22;41951;49.022;12.066;2022-09-09T14:38:10;23.50;99.90
56076;DHT22;41951;49.022;12.066;2022-09-09T14:40:37;23.80;99.90
56076;DHT22;41951;49.022;12.066;2022-09-09T14:43:04;23.90;99.90
56076;DHT22;41951;49.022;12.066;2022-09-09T14:45:31;24.50;99.90
56076;DHT22;41951;49.022;12.066;2022-09-09T14:47:57;24.30;99.90
56076;DHT22;41951;49.022;12.066;2022-09-09T14:50:23;23.70;99.90
56076;DHT22;41951;49.022;12.066;2022-09-09T14:52:49;23.90;99.90
56076;DHT22;41951;49.022;12.066;2022-09-09T14:55:16;23.90;99.90
56076;DHT22;41951;49.022;12.066;2022-09-09T14:57:42;25.00;99.90
56076;DHT22;41951;49.022;12.066;2022-09-09T15:00:08;24.70;99.90
56076;DHT22;41951;49.022;12.066;2022-09-09T15:02:35;24.10;99.90
56076;DHT22;41951;49.022;12.066;2022-09-09T15:05:00;23.20;99.90
56076;DHT22;41951;49.022;12.066;2022-09-09T15:07:27;22.80;99.90
56076;DHT22;41951;49.022;12.066;2022-09-09T15:09:54;22.30;99.90
56076;DHT22;41951;49.022;12.066;2022-09-09T15:12:20;22.00;99.90
56076;DHT22;41951;49.022;12.066;2022-09-09T15:14:46;21.80;99.90
56076;DHT22;41951;49.022;12.066;2022-09-09T15:17:13;21.50;99.90
56076;DHT22;41951;49.022;12.066;2022-09-09T15:19:38;21.50;99.90
56076;DHT22;41951;49.022;12.066;2022-09-09T15:22:05;21.10;99.90
56076;DHT22;41951;49.022;12.066;2022-09-09T15:24:33;21.00;99.90
56076;DHT22;41951;49.022;12.066;2022-09-09T15:27:00;20.90;99.90
56076;DHT22;41951;49.022;12.066;2022-09-09T15:29:25;20.80;99.90
56076;DHT22;41951;49.022;12.066;2022-09-09T15:31:53;20.80;99.90
56076;DHT22;41951;49.022;12.066;2022-09-09T15:34:19;20.80;99.90
56076;DHT22;41951;49.022;12.066;2022-09-09T15:36:45;20.70;99.90
56076;DHT22;41951;49.022;12.066;2022-09-09T15:39:15;20.60;99.90
56076;DHT22;41951;49.022;12.066;2022-09-09T15:41:43;20.50;99.90
56076;DHT22;41951;49.022;12.066;2022-09-09T15:44:09;20.50;99.90
56076;DHT22;41951;49.022;12.066;2022-09-09T15:51:34;21.10;99.90
56076;DHT22;41951;49.022;12.066;2022-09-09T15:54:00;21.40;99.90
56076;DHT22;41951;49.022;12.066;2022-09-09T15:56:27;21.50;99.90
56076;DHT22;41951;49.022;12.066;2022-09-09T15:58:55;21.40;99.90
56076;DHT22;41951;49.022;12.066;2022-09-09T16:01:20;21.30;99.90
56076;DHT22;41951;49.022;12.066;2022-09-09T16:03:46;21.00;99.90
56076;DHT22;41951;49.022;12.066;2022-09-09T16:06:16;20.80;99.90
56076;DHT22;41951;49.022;12.066;2022-09-09T16:08:44;20.60;99.90
56076;DHT22;41951;49.022;12.066;2022-09-09T16:11:15;20.50;99.90
56076;DHT22;41951;49.022;12.066;2022-09-09T16:13:43;20.40;99.90
56076;DHT22;41951;49.022;12.066;2022-09-09T16:16:10;20.30;99.90
56076;DHT22;41951;49.022;12.066;2022-09-09T16:18:41;20.20;99.90
56076;DHT22;41951;49.022;12.066;2022-09-09T16:21:07;20.10;99.90
56076;DHT22;41951;49.022;12.066;2022-09-09T16:23:34;20.10;99.90
56076;DHT22;41951;49.022;12.066;2022-09-09T16:26:00;20.00;99.90
56076;DHT22;41951;49.022;12.066;2022-09-09T16:28:27;20.00;99.90
56076;DHT22;41951;49.022;12.066;2022-09-09T16:30:52;20.00;99.90
56076;DHT22;41951;49.022;12.066;2022-09-09T16:33:18;19.90;99.90
56076;DHT22;41951;49.022;12.066;2022-09-09T16:35:44;19.90;99.90
56076;DHT22;41951;49.022;12.066;2022-09-09T16:38:10;19.90;99.90
56076;DHT22;41951;49.022;12.066;2022-09-09T16:40:37;19.90;99.90
56076;DHT22;41951;49.022;12.066;2022-09-09T16:43:03;19.80;99.90
56076;DHT22;41951;49.022;12.066;2022-09-09T16:45:29;19.80;99.90
56076;DHT22;41951;49.022;12.066;2022-09-09T16:47:55;19.90;99.90
56076;DHT22;41951;49.022;12.066;2022-09-09T16:50:21;19.80;99.90
56076;DHT22;41951;49.022;12.066;2022-09-09T16:52:47;19.70;99.90
56076;DHT22;41951;49.022;12.066;2022-09-09T16:55:16;19.70;99.90
56076;DHT22;41951;49.022;12.066;2022-09-09T16:57:54;19.70;99.90
56076;DHT22;41951;49.022;12.066;2022-09-09T17:00:23;19.60;99.90
56076;DHT22;41951;49.022;12.066;2022-09-09T17:02:49;19.50;99.90
56076;DHT22;41951;49.022;12.066;2022-09-09T17:05:14;19.30;99.90
56076;DHT22;41951;49.022;12.066;2022-09-09T17:07:40;19.10;99.90
56076;DHT22;41951;49.022;12.066;2022-09-09T17:10:06;19.00;99.90
56076;DHT22;41951;49.022;12.066;2022-09-09T17:12:33;18.90;99.90
56076;DHT22;41951;49.022;12.066;2022-09-09T17:15:00;18.80;99.90
56076;DHT22;41951;49.022;12.066;2022-09-09T17:17:28;18.80;99.90
56076;DHT22;41951;49.022;12.066;2022-09-09T17:19:53;18.60;99.90
56076;DHT22;41951;49.022;12.066;2022-09-09T17:22:19;18.60;99.90
56076;DHT22;41951;49.022;12.066;2022-09-09T17:24:46;18.70;99.90
56076;DHT22;41951;49.022;12.066;2022-09-09T17:27:12;18.70;99.90
56076;DHT22;41951;49.022;12.066;2022-09-09T17:29:38;18.80;99.90
56076;DHT22;41951;49.022;12.066;2022-09-09T17:32:04;18.70;99.90
56076;DHT22;41951;49.022;12.066;2022-09-09T17:34:34;18.70;99.90
56076;DHT22;41951;49.022;12.066;2022-09-09T17:37:00;18.70;99.90
56076;DHT22;41951;49.022;12.066;2022-09-09T17:39:26;18.70;99.90
56076;DHT22;41951;49.022;12.066;2022-09-09T17:41:51;18.60;99.90
56076;DHT22;41951;49.022;12.066;2022-09-09T17:44:18;18.50;99.90
56076;DHT22;41951;49.022;12.066;2022-09-09T17:46:45;18.60;99.90
56076;DHT22;41951;49.022;12.066;2022-09-09T17:49:13;18.40;99.90